createdAt,value
2022-08-03T00:01:32.515Z,21.34
2022-08-03T00:06:57.535Z,21.17
2022-08-03T00:12:20.690Z,21.03
2022-08-03T00:17:52.756Z,20.89
2022-08-03T00:23:18.539Z,20.97
2022-08-03T00:28:42.054Z,20.72
2022-08-03T00:34:36.702Z,20.71
2022-08-03T00:40:15.189Z,20.90
2022-08-03T00:45:39.707Z,20.93
2022-08-03T00:51:02.938Z,21.03
2022-08-03T00:56:27.875Z,20.80
2022-08-03T01:01:51.284Z,20.71
2022-08-03T01:07:17.818Z,20.90
2022-08-03T01:12:45.399Z,20.89
2022-08-03T01:18:11.369Z,20.86
2022-08-03T01:23:46.703Z,20.52
2022-08-03T01:29:29.951Z,20.81
2022-08-03T01:34:57.619Z,20.87
2022-08-03T01:40:22.179Z,20.78
2022-08-03T01:45:47.082Z,20.46
2022-08-03T01:51:10.631Z,20.54
2022-08-03T01:56:34.315Z,20.60
2022-08-03T02:02:27.704Z,20.56
2022-08-03T02:07:46.534Z,20.55
2022-08-03T02:13:10.929Z,20.64
2022-08-03T02:18:39.280Z,20.61
2022-08-03T02:24:02.557Z,20.59
2022-08-03T02:29:39.195Z,20.47
2022-08-03T02:35:06.879Z,20.50
2022-08-03T02:40:31.820Z,20.43
2022-08-03T02:45:55.634Z,20.53
2022-08-03T02:51:21.774Z,20.45
2022-08-03T02:56:45.697Z,20.56
2022-08-03T03:02:09.173Z,20.67
2022-08-03T03:07:51.382Z,20.65
2022-08-03T03:13:16.696Z,20.58
2022-08-03T03:18:40.894Z,20.40
2022-08-03T03:24:06.728Z,20.13
2022-08-03T03:29:29.908Z,20.42
2022-08-03T03:35:01.684Z,20.48
2022-08-03T03:40:26.191Z,20.46
2022-08-03T03:45:49.443Z,20.29
2022-08-03T03:51:12.760Z,20.30
2022-08-03T03:56:37.376Z,20.44
2022-08-03T04:02:01.029Z,20.41
2022-08-03T04:07:42.493Z,20.45
2022-08-03T04:13:09.991Z,20.37
2022-08-03T04:18:35.689Z,20.46
2022-08-03T04:24:02.748Z,20.36
2022-08-03T04:29:27.655Z,20.41
2022-08-03T04:34:50.844Z,20.35
2022-08-03T04:40:16.183Z,20.29
2022-08-03T04:45:45.134Z,20.14
2022-08-03T04:51:08.368Z,20.36
2022-08-03T04:56:31.518Z,20.58
2022-08-03T05:01:55.998Z,20.74
2022-08-03T05:07:25.152Z,20.84
2022-08-03T05:12:51.707Z,20.50
2022-08-03T05:18:16.694Z,20.53
2022-08-03T05:23:39.854Z,20.62
2022-08-03T05:29:03.064Z,20.49
2022-08-03T05:34:27.835Z,20.54
2022-08-03T05:39:53.123Z,20.56
2022-08-03T05:45:17.936Z,20.68
2022-08-03T05:50:42.955Z,20.66
2022-08-03T05:56:14.277Z,20.62
2022-08-03T06:01:39.183Z,20.74
2022-08-03T06:07:03.754Z,20.84
2022-08-03T06:12:27.053Z,20.85
2022-08-03T06:17:51.338Z,20.97
2022-08-03T06:23:17.585Z,21.47
2022-08-03T06:28:51.436Z,21.71
2022-08-03T06:34:32.699Z,21.98
2022-08-03T06:39:59.285Z,21.91
2022-08-03T06:45:22.457Z,21.91
2022-08-03T06:50:45.643Z,22.46
2022-08-03T06:56:11.393Z,23.05
2022-08-03T07:01:34.549Z,23.25
2022-08-03T07:06:58.574Z,23.11
2022-08-03T07:12:23.515Z,22.83
2022-08-03T07:17:46.622Z,23.38
2022-08-03T07:23:09.962Z,23.52
2022-08-03T07:28:44.246Z,23.43
2022-08-03T07:34:07.345Z,23.52
2022-08-03T07:39:30.714Z,23.76
2022-08-03T07:44:55.503Z,23.39
2022-08-03T07:50:18.680Z,23.86
2022-08-03T07:55:42.424Z,24.33
2022-08-03T08:01:07.294Z,24.77
2022-08-03T08:06:32.880Z,25.56
2022-08-03T08:11:55.990Z,25.38
2022-08-03T08:17:21.373Z,25.31
2022-08-03T08:22:45.427Z,25.37
2022-08-03T08:28:30.527Z,25.73
2022-08-03T08:34:04.178Z,24.85
2022-08-03T08:39:27.895Z,24.46
2022-08-03T08:44:50.988Z,24.68
2022-08-03T08:50:27.219Z,24.35
2022-08-03T08:55:58.003Z,24.36
2022-08-03T09:01:23.155Z,25.20
2022-08-03T09:07:10.570Z,25.20
2022-08-03T09:12:41.864Z,25.46
2022-08-03T09:18:06.279Z,25.45
2022-08-03T09:24:01.396Z,25.76
2022-08-03T09:29:26.423Z,26.11
2022-08-03T09:34:50.303Z,25.76
2022-08-03T09:40:35.796Z,25.93
2022-08-03T09:46:07.444Z,26.01
2022-08-03T09:51:33.059Z,26.61
2022-08-03T09:57:26.316Z,27.16
2022-08-03T10:02:50.618Z,27.05
2022-08-03T10:08:16.162Z,27.17
2022-08-03T10:13:41.295Z,27.21
2022-08-03T10:19:05.803Z,27.63
2022-08-03T10:24:31.479Z,27.60
2022-08-03T10:29:57.696Z,27.49
2022-08-03T10:35:23.418Z,27.57
2022-08-03T10:40:49.580Z,27.98
2022-08-03T10:46:17.118Z,28.01
2022-08-03T10:51:40.838Z,27.97
2022-08-03T10:57:21.848Z,28.30
2022-08-03T11:03:10.545Z,28.34
2022-08-03T11:08:35.729Z,28.52
2022-08-03T11:14:00.389Z,28.77
2022-08-03T11:19:28.216Z,28.48
2022-08-03T11:25:04.541Z,28.61
2022-08-03T11:30:29.748Z,28.56
2022-08-03T11:36:01.742Z,28.62
2022-08-03T11:41:34.083Z,28.63
2022-08-03T11:47:10.014Z,28.68
2022-08-03T11:52:38.812Z,29.04
2022-08-03T11:59:03.368Z,28.72
2022-08-03T12:03:45.999Z,28.74
2022-08-03T12:09:17.835Z,28.41
2022-08-03T12:14:52.160Z,28.42
2022-08-03T12:20:34.964Z,28.64
2022-08-03T12:26:04.851Z,28.68
2022-08-03T12:31:28.019Z,28.66
2022-08-03T12:36:52.746Z,28.57
2022-08-03T12:42:17.268Z,28.91
2022-08-03T12:47:51.565Z,28.89
2022-08-03T12:53:29.613Z,28.81
2022-08-03T12:58:54.346Z,28.46
2022-08-03T13:04:27.138Z,28.44
2022-08-03T13:09:56.841Z,28.68
2022-08-03T13:15:21.537Z,28.71
2022-08-03T13:20:47.506Z,28.54
2022-08-03T13:26:10.690Z,28.51
2022-08-03T13:31:35.102Z,28.88
2022-08-03T13:37:13.681Z,29.05
2022-08-03T13:42:38.964Z,29.21
2022-08-03T13:48:03.525Z,29.01
2022-08-03T13:53:26.652Z,29.16
2022-08-03T13:58:49.754Z,29.56
2022-08-03T14:04:21.777Z,29.58
2022-08-03T14:09:45.537Z,29.62
2022-08-03T14:15:10.174Z,29.42
2022-08-03T14:20:38.898Z,29.27
2022-08-03T14:26:12.141Z,29.39
2022-08-03T14:32:09.439Z,29.55
2022-08-03T14:37:21.015Z,29.25
2022-08-03T14:42:45.692Z,29.14
2022-08-03T14:50:28.786Z,28.66
2022-08-03T14:53:54.852Z,28.84
2022-08-03T14:59:18.099Z,28.98
2022-08-03T15:04:41.275Z,28.84
2022-08-03T15:10:06.394Z,28.80
2022-08-03T15:15:29.778Z,28.86
2022-08-03T15:20:52.927Z,28.99
2022-08-03T15:26:33.884Z,28.95
2022-08-03T15:31:58.559Z,29.17
2022-08-03T15:37:21.875Z,29.22
2022-08-03T15:42:46.346Z,29.28
2022-08-03T15:48:09.575Z,28.99
2022-08-03T15:53:33.477Z,29.04
2022-08-03T15:59:09.945Z,28.94
2022-08-03T16:04:37.627Z,28.82
2022-08-03T16:10:00.710Z,28.82
2022-08-03T16:15:25.378Z,28.74
2022-08-03T16:20:48.535Z,29.02
2022-08-03T16:26:11.636Z,28.97
2022-08-03T16:31:36.110Z,28.98
2022-08-03T16:37:07.845Z,29.11
2022-08-03T16:42:40.643Z,28.78
2022-08-03T16:48:06.176Z,28.92
2022-08-03T16:53:33.740Z,28.33
2022-08-03T16:59:12.483Z,28.58
2022-08-03T17:04:37.214Z,28.00
2022-08-03T17:10:03.654Z,27.94
2022-08-03T17:15:38.050Z,28.02
2022-08-03T17:21:18.344Z,28.07
2022-08-03T17:26:44.757Z,27.95
2022-08-03T17:32:21.439Z,27.86
2022-08-03T17:37:58.429Z,28.13
2022-08-03T17:44:14.078Z,28.10
2022-08-03T17:49:24.898Z,28.56
2022-08-03T17:55:50.445Z,28.39
2022-08-03T18:02:00.127Z,28.52
2022-08-03T18:06:58.472Z,28.75
2022-08-03T18:12:27.284Z,28.19
2022-08-03T18:17:55.567Z,28.03
2022-08-03T18:23:36.952Z,27.97
2022-08-03T18:29:04.061Z,27.49
2022-08-03T18:34:33.208Z,27.48
2022-08-03T18:39:58.594Z,27.31
2022-08-03T18:45:57.563Z,27.46
2022-08-03T18:51:28.849Z,27.47
2022-08-03T18:57:04.272Z,26.75
2022-08-03T19:02:33.006Z,27.32
2022-08-03T19:07:59.728Z,27.15
2022-08-03T19:13:30.893Z,27.04
2022-08-03T19:19:01.198Z,26.99
2022-08-03T19:24:26.089Z,26.84
2022-08-03T19:29:59.560Z,26.98
2022-08-03T19:35:49.808Z,26.83
2022-08-03T19:41:13.797Z,26.60
2022-08-03T19:46:42.040Z,26.53
2022-08-03T19:52:07.827Z,26.48
2022-08-03T19:57:31.809Z,26.50
2022-08-03T20:02:57.037Z,26.44
2022-08-03T20:08:25.413Z,26.38
2022-08-03T20:13:51.563Z,26.38
2022-08-03T20:19:16.841Z,26.24
2022-08-03T20:24:50.766Z,26.31
2022-08-03T20:30:16.198Z,26.21
2022-08-03T20:35:45.786Z,26.08
2022-08-03T20:41:13.555Z,26.13
2022-08-03T20:46:53.502Z,25.93
2022-08-03T20:52:22.061Z,25.82
2022-08-03T20:57:51.768Z,25.48
2022-08-03T21:03:17.372Z,25.44
2022-08-03T21:08:47.012Z,25.44
2022-08-03T21:14:17.061Z,25.50
2022-08-03T21:19:51.603Z,25.46
2022-08-03T21:25:16.913Z,25.31
2022-08-03T21:30:41.615Z,25.36
2022-08-03T21:36:05.224Z,25.30
2022-08-03T21:41:29.650Z,25.17
2022-08-03T21:46:55.001Z,25.12
2022-08-03T21:52:19.461Z,25.05
2022-08-03T21:57:45.175Z,24.92
2022-08-03T22:03:17.382Z,24.89
2022-08-03T22:08:41.656Z,24.82
2022-08-03T22:14:05.245Z,24.76
2022-08-03T22:19:29.757Z,24.72
2022-08-03T22:24:56.994Z,24.62
2022-08-03T22:30:22.039Z,24.57
2022-08-03T22:35:50.903Z,24.45
2022-08-03T22:41:14.980Z,24.49
2022-08-03T22:46:39.023Z,24.42
2022-08-03T22:52:03.702Z,24.45
2022-08-03T22:57:26.941Z,24.37
2022-08-03T23:02:50.322Z,24.34
2022-08-03T23:08:15.910Z,24.09
2022-08-03T23:13:40.937Z,24.22
2022-08-03T23:19:17.373Z,24.15
2022-08-03T23:24:48.778Z,24.03
2022-08-03T23:30:13.013Z,23.98
2022-08-03T23:36:29.524Z,23.98
2022-08-03T23:41:40.409Z,23.95
2022-08-03T23:47:03.710Z,23.89
2022-08-03T23:52:30.757Z,23.83
2022-08-03T23:58:03.329Z,23.81
